Thursday, November 23, 2017, 6:13 PM GMT
Back to Local

CWWZ, Port Weller, Ont.

Location: , , Canada Lat: 43.25
Local Time: 6:13 PM GMT (18:13 GMT) Lon: -79.217
Time Zone: GMT Elev: 259 ft

Show me the last for .
Show Coded

Time T Td Feel RH Dir Speed Gust Alt SLP Vis Weather Sky Remarks
2017-11-23 17:00 38 24 32 58 220° 7 - - 30.04 0 None
2017-11-23 16:00 38 24 34 57 230° 5 - - 30.07 0 None
2017-11-23 15:00 37 24 33 59 250° 6 - - 30.09 0 None
2017-11-23 14:00 35 26 29 69 250° 7 - - 30.12 0 None
2017-11-23 13:00 33 22 29 62 230° 5 - - 30.13 0 None
2017-11-23 12:00 33 22 29 64 250° 5 - - 30.12 0 None
2017-11-23 11:00 33 22 28 64 250° 6 - - 30.13 0 None
2017-11-23 10:00 33 22 27 63 250° 8 - - 30.15 0 None
2017-11-23 09:00 33 22 27 63 240° 7 - - 30.17 0 None
2017-11-23 08:00 33 24 28 67 240° 6 - - 30.18 0 None
2017-11-23 07:00 32 23 26 68 230° 6 - - 30.18 0 None
2017-11-23 06:00 32 23 25 68 230° 7 - - 30.19 0 None
2017-11-23 05:00 32 23 26 69 240° 6 - - 30.21 0 None
2017-11-23 04:00 33 23 25 65 260° 10 - - 30.20 0 Peak wind: 19 mph (17 kts) from 300° at 07 min
2017-11-23 03:00 34 23 22 64 300° 15 21 - 30.22 0 Peak wind: 20 mph (18 kts) from 290° at 51 min
2017-11-23 02:00 32 21 21 65 290° 15 - - 30.24 0 Peak wind: 19 mph (17 kts) from 290° at 53 min
2017-11-23 01:00 31 22 19 67 300° 14 20 - 30.25 0 Peak wind: 25 mph (22 kts) from 300° at 15 min
2017-11-23 00:00 32 22 21 65 310° 17 - - 30.27 0 Peak wind: 25 mph (22 kts) from 300° at 19 min
2017-11-22 23:00 31 23 20 69 310° 17 - - 30.26 0 Peak wind: 21 mph (19 kts) from 290° at 17 min
2017-11-22 22:00 33 22 23 61 300° 15 - - 30.24 0 Peak wind: 25 mph (22 kts) from 310° at 05 min
2017-11-22 21:00 33 22 23 61 290° 16 - - 30.23 0 Peak wind: 25 mph (22 kts) from 290° at 07 min
2017-11-22 20:00 34 23 23 63 290° 17 - - 30.20 0 Peak wind: 23 mph (20 kts) from 300° at 18 min
2017-11-22 19:00 34 23 23 64 300° 17 - - 30.19 0 Peak wind: 24 mph (21 kts) from 290° at 39 min

Support USWX by starting your Amazon purchase here.